createdAt,value
2023-04-19T00:01:14.899Z,7.18
2023-04-19T00:03:41.552Z,6.47
2023-04-19T00:06:08.364Z,6.57
2023-04-19T00:08:35.018Z,8.00
2023-04-19T00:11:01.595Z,6.93
2023-04-19T00:13:28.152Z,7.13
2023-04-19T00:15:54.658Z,7.22
2023-04-19T00:18:21.284Z,7.57
2023-04-19T00:20:48.850Z,7.05
2023-04-19T00:23:15.452Z,6.47
2023-04-19T00:25:42.109Z,6.88
2023-04-19T00:28:08.637Z,6.35
2023-04-19T00:30:35.555Z,7.03
2023-04-19T00:33:02.204Z,7.15
2023-04-19T00:35:28.860Z,7.28
2023-04-19T00:37:55.615Z,6.93
2023-04-19T00:40:22.295Z,6.90
2023-04-19T00:42:48.824Z,7.63
2023-04-19T00:45:15.431Z,7.05
2023-04-19T00:47:42.104Z,7.00
2023-04-19T00:50:09.348Z,6.53
2023-04-19T00:52:36.532Z,6.90
2023-04-19T00:55:04.777Z,6.57
2023-04-19T00:57:31.326Z,7.03
2023-04-19T00:59:58.524Z,7.38
2023-04-19T01:02:25.350Z,6.68
2023-04-19T01:04:52.597Z,6.20
2023-04-19T01:07:19.445Z,6.85
2023-04-19T01:09:46.584Z,6.85
2023-04-19T01:12:13.122Z,6.60
2023-04-19T01:14:42.883Z,5.80
2023-04-19T01:17:09.640Z,6.57
2023-04-19T01:19:37.039Z,6.65
2023-04-19T01:22:04.122Z,6.18
2023-04-19T01:24:31.118Z,6.70
2023-04-19T01:26:57.716Z,6.68
2023-04-19T01:29:24.639Z,6.93
2023-04-19T01:31:53.642Z,5.60
2023-04-19T01:34:20.771Z,6.22
2023-04-19T01:36:47.358Z,6.38
2023-04-19T01:39:13.942Z,6.15
2023-04-19T01:41:40.643Z,5.55
2023-04-19T01:44:09.536Z,5.80
2023-04-19T01:46:38.768Z,5.60
2023-04-19T01:49:05.750Z,6.80
2023-04-19T01:51:32.355Z,5.80
2023-04-19T01:54:02.427Z,6.25
2023-04-19T01:56:29.005Z,6.22
2023-04-19T01:58:56.380Z,6.00
2023-04-19T02:01:22.978Z,6.20
2023-04-19T02:03:51.214Z,5.80
2023-04-19T02:06:18.003Z,6.20
2023-04-19T02:08:44.578Z,6.10
2023-04-19T02:11:15.993Z,5.70
2023-04-19T02:13:42.984Z,5.75
2023-04-19T02:16:10.728Z,5.47
2023-04-19T02:18:38.559Z,5.50
2023-04-19T02:21:05.903Z,6.00
2023-04-19T02:23:32.601Z,4.85
2023-04-19T02:26:02.991Z,4.80
2023-04-19T02:28:30.965Z,5.03
2023-04-19T02:30:58.260Z,5.15
2023-04-19T02:33:27.051Z,4.38
2023-04-19T02:35:53.617Z,4.70
2023-04-19T02:38:20.385Z,4.65
2023-04-19T02:40:46.921Z,4.43
2023-04-19T02:43:13.501Z,4.20
2023-04-19T02:45:40.894Z,4.90
2023-04-19T02:48:07.493Z,4.53
2023-04-19T02:50:38.372Z,4.30
2023-04-19T02:53:05.568Z,4.28
2023-04-19T02:55:32.336Z,3.58
2023-04-19T02:58:09.719Z,4.50
2023-04-19T03:00:42.461Z,3.40
2023-04-19T03:03:12.665Z,3.38
2023-04-19T03:05:39.301Z,4.10
2023-04-19T03:08:05.935Z,3.70
2023-04-19T03:10:33.011Z,3.35
2023-04-19T03:12:59.538Z,3.10
2023-04-19T03:15:26.259Z,3.50
2023-04-19T03:17:53.262Z,3.40
2023-04-19T03:20:21.691Z,3.60
2023-04-19T03:22:49.193Z,3.78
2023-04-19T03:25:15.908Z,4.03
2023-04-19T03:27:47.835Z,3.40
2023-04-19T03:30:16.742Z,3.80
2023-04-19T03:32:47.401Z,3.60
2023-04-19T03:35:14.201Z,3.03
2023-04-19T03:37:40.775Z,4.70
2023-04-19T03:40:08.432Z,4.18
2023-04-19T03:42:35.091Z,3.63
2023-04-19T03:45:12.276Z,3.70
2023-04-19T03:47:44.182Z,3.38
2023-04-19T03:50:10.881Z,3.45
2023-04-19T03:52:39.652Z,2.95
2023-04-19T03:55:06.695Z,3.20
2023-04-19T03:57:37.372Z,3.42
2023-04-19T04:00:12.126Z,3.50
2023-04-19T04:02:41.877Z,3.75
2023-04-19T04:05:11.120Z,3.45
2023-04-19T04:07:37.989Z,3.78
2023-04-19T04:10:05.085Z,3.25
2023-04-19T04:12:38.003Z,3.28
2023-04-19T04:15:07.247Z,3.22
2023-04-19T04:17:37.221Z,3.20
2023-04-19T04:20:05.659Z,3.85
2023-04-19T04:22:32.754Z,3.53
2023-04-19T04:25:00.976Z,3.38
2023-04-19T04:27:33.831Z,3.28
2023-04-19T04:30:01.724Z,3.80
2023-04-19T04:32:29.954Z,3.28
2023-04-19T04:35:00.634Z,3.67
2023-04-19T04:37:40.154Z,3.67
2023-04-19T04:40:08.843Z,3.67
2023-04-19T04:42:35.632Z,3.58
2023-04-19T04:45:02.247Z,3.40
2023-04-19T04:47:34.672Z,3.55
2023-04-19T04:50:05.893Z,3.85
2023-04-19T04:52:32.539Z,3.88
2023-04-19T04:55:21.675Z,3.60
2023-04-19T04:57:48.228Z,4.57
2023-04-19T05:00:21.423Z,3.88
2023-04-19T05:02:57.231Z,4.20
2023-04-19T05:05:24.045Z,3.95
2023-04-19T05:07:50.649Z,3.78
2023-04-19T05:10:17.541Z,3.80
2023-04-19T05:12:45.816Z,3.53
2023-04-19T05:15:12.351Z,4.10
2023-04-19T05:17:43.626Z,3.53
2023-04-19T05:20:10.691Z,3.60
2023-04-19T05:22:38.310Z,4.18
2023-04-19T05:25:10.520Z,3.58
2023-04-19T05:27:37.898Z,3.60
2023-04-19T05:30:06.569Z,3.67
2023-04-19T05:32:34.709Z,3.47
2023-04-19T05:35:04.016Z,3.28
2023-04-19T05:37:30.749Z,3.72
2023-04-19T05:39:58.144Z,3.40
2023-04-19T05:42:25.492Z,3.10
2023-04-19T05:44:52.037Z,3.38
2023-04-19T05:47:19.315Z,3.03
2023-04-19T05:50:06.688Z,3.17
2023-04-19T05:52:40.385Z,2.88
2023-04-19T05:55:08.128Z,2.95
2023-04-19T05:57:40.110Z,3.60
2023-04-19T06:00:09.490Z,2.85
2023-04-19T06:02:57.776Z,3.03
2023-04-19T06:05:24.603Z,2.95
2023-04-19T06:07:55.724Z,3.10
2023-04-19T06:10:36.701Z,2.70
2023-04-19T06:13:16.087Z,2.47
2023-04-19T06:15:42.869Z,4.18
2023-04-19T06:18:11.016Z,2.72
2023-04-19T06:20:46.913Z,3.00
2023-04-19T06:23:14.736Z,2.35
2023-04-19T06:25:41.478Z,2.67
2023-04-19T06:28:08.017Z,2.65
2023-04-19T06:30:34.649Z,2.28
2023-04-19T06:33:01.366Z,2.85
2023-04-19T06:35:27.989Z,2.88
2023-04-19T06:37:54.543Z,2.88
2023-04-19T06:40:21.477Z,2.72
2023-04-19T06:42:47.979Z,2.42
2023-04-19T06:45:16.077Z,2.42
2023-04-19T06:47:42.710Z,2.28
2023-04-19T06:50:10.893Z,2.42
2023-04-19T06:52:38.868Z,2.30
2023-04-19T06:55:09.461Z,2.20
2023-04-19T06:57:36.065Z,2.10
2023-04-19T07:00:04.212Z,2.42
2023-04-19T07:02:30.902Z,2.20
2023-04-19T07:04:57.472Z,2.22
2023-04-19T07:07:24.089Z,2.08
2023-04-19T07:09:50.719Z,2.28
2023-04-19T07:12:17.228Z,2.28
2023-04-19T07:14:43.757Z,2.53
2023-04-19T07:17:10.355Z,2.03
2023-04-19T07:19:36.877Z,1.98
2023-04-19T07:22:03.492Z,1.77
2023-04-19T07:24:30.344Z,1.83
2023-04-19T07:26:57.447Z,2.10
2023-04-19T07:29:24.028Z,1.73
2023-04-19T07:31:50.639Z,2.00
2023-04-19T07:34:17.851Z,1.50
2023-04-19T07:36:44.643Z,1.98
2023-04-19T07:39:11.230Z,2.03
2023-04-19T07:41:37.919Z,2.42
2023-04-19T07:44:04.668Z,1.83
2023-04-19T07:46:31.379Z,1.90
2023-04-19T07:48:58.076Z,2.22
2023-04-19T07:51:25.173Z,1.80
2023-04-19T07:53:51.796Z,1.90
2023-04-19T07:56:19.989Z,2.15
2023-04-19T07:58:50.738Z,1.73
2023-04-19T08:01:23.591Z,2.25
2023-04-19T08:03:50.811Z,1.83
2023-04-19T08:06:21.633Z,1.83
2023-04-19T08:08:50.101Z,1.52
2023-04-19T08:11:16.793Z,2.10
2023-04-19T08:13:51.593Z,1.70
2023-04-19T08:17:10.827Z,2.03
2023-04-19T08:19:14.703Z,2.17
2023-04-19T08:21:41.835Z,1.60
2023-04-19T08:24:08.974Z,2.17
2023-04-19T08:26:35.628Z,1.65
2023-04-19T08:29:02.617Z,1.65
2023-04-19T08:31:29.359Z,1.67
2023-04-19T08:33:56.973Z,1.35
2023-04-19T08:36:36.938Z,1.52
2023-04-19T08:39:08.312Z,1.63
2023-04-19T08:41:40.043Z,1.48
2023-04-19T08:44:08.381Z,1.52
2023-04-19T08:46:35.598Z,1.38
2023-04-19T08:49:05.940Z,1.85
2023-04-19T08:51:32.894Z,1.58
2023-04-19T08:54:00.525Z,1.13
2023-04-19T08:56:35.342Z,1.70
2023-04-19T08:59:15.616Z,1.75
2023-04-19T09:01:45.128Z,1.25
2023-04-19T09:04:34.485Z,1.30
2023-04-19T09:06:58.621Z,1.90
2023-04-19T09:12:00.249Z,1.90
2023-04-19T09:14:28.286Z,1.63
2023-04-19T09:17:12.689Z,1.85
2023-04-19T09:19:47.742Z,1.58
2023-04-19T09:22:14.824Z,1.33
2023-04-19T09:27:12.165Z,1.80
2023-04-19T09:29:38.962Z,1.40
2023-04-19T09:32:06.077Z,1.85
2023-04-19T09:34:32.792Z,1.30
2023-04-19T09:37:20.843Z,1.40
2023-04-19T09:39:59.318Z,1.85
2023-04-19T09:43:04.333Z,1.38
2023-04-19T09:45:43.454Z,1.55
2023-04-19T09:48:11.666Z,1.95
2023-04-19T09:51:06.977Z,1.88
2023-04-19T09:53:40.539Z,1.67
2023-04-19T09:56:09.764Z,1.52
2023-04-19T09:58:48.786Z,1.73
2023-04-19T10:01:19.938Z,1.52
2023-04-19T10:03:49.260Z,1.58
2023-04-19T10:08:50.132Z,1.48
2023-04-19T10:11:18.705Z,1.50
2023-04-19T10:13:47.780Z,1.65
2023-04-19T10:16:19.566Z,1.70
2023-04-19T10:18:49.784Z,1.75
2023-04-19T10:21:17.173Z,1.75
2023-04-19T10:23:44.230Z,1.52
2023-04-19T10:26:11.158Z,2.13
2023-04-19T10:28:38.011Z,1.73
2023-04-19T10:31:05.342Z,2.10
2023-04-19T10:33:36.450Z,1.55
2023-04-19T10:36:03.859Z,2.58
2023-04-19T10:39:02.881Z,1.73
2023-04-19T10:42:01.987Z,2.75
2023-04-19T10:44:28.761Z,1.38
2023-04-19T10:46:55.715Z,1.60
2023-04-19T10:49:23.655Z,1.80
2023-04-19T10:51:54.824Z,1.98
2023-04-19T10:54:31.415Z,1.80
2023-04-19T10:57:02.022Z,1.50
2023-04-19T10:59:36.515Z,2.08
2023-04-19T11:02:23.185Z,1.90
2023-04-19T11:04:50.160Z,1.75
2023-04-19T11:07:23.801Z,1.90
2023-04-19T11:09:51.827Z,2.50
2023-04-19T11:12:20.493Z,1.67
2023-04-19T11:14:50.822Z,2.55
2023-04-19T11:17:26.950Z,2.28
2023-04-19T11:20:09.251Z,1.60
2023-04-19T11:22:37.784Z,1.90
2023-04-19T11:25:19.128Z,1.80
2023-04-19T11:27:47.916Z,1.60
2023-04-19T11:30:17.079Z,2.03
2023-04-19T11:32:52.914Z,1.95
2023-04-19T11:35:21.682Z,2.13
2023-04-19T11:37:48.793Z,1.77
2023-04-19T11:40:17.091Z,2.17
2023-04-19T11:42:44.375Z,2.45
2023-04-19T11:45:26.037Z,1.98
2023-04-19T11:47:56.903Z,2.10
2023-04-19T11:50:35.673Z,2.10
2023-04-19T11:53:17.036Z,1.75
2023-04-19T11:55:45.651Z,2.05
2023-04-19T11:58:32.925Z,1.92
2023-04-19T12:01:08.352Z,1.88
2023-04-19T12:03:44.886Z,1.98
2023-04-19T12:06:22.060Z,1.88
2023-04-19T12:08:51.076Z,2.15
2023-04-19T12:11:19.414Z,1.80
2023-04-19T12:13:46.262Z,1.83
2023-04-19T12:16:13.348Z,2.17
2023-04-19T12:18:48.326Z,2.13
2023-04-19T12:21:45.420Z,1.80
2023-04-19T12:24:14.733Z,2.35
2023-04-19T12:26:57.282Z,2.67
2023-04-19T12:29:24.252Z,2.33
2023-04-19T12:31:51.099Z,2.15
2023-04-19T12:34:17.820Z,1.85
2023-04-19T12:36:44.318Z,2.20
2023-04-19T12:39:10.894Z,2.15
2023-04-19T12:41:37.405Z,2.00
2023-04-19T12:44:04.030Z,1.80
2023-04-19T12:46:30.823Z,2.15
2023-04-19T12:48:57.544Z,1.70
2023-04-19T12:51:24.180Z,1.67
2023-04-19T12:53:52.274Z,2.13
2023-04-19T12:56:18.822Z,2.03
2023-04-19T12:58:45.502Z,2.10
2023-04-19T13:01:12.179Z,1.83
2023-04-19T13:03:38.864Z,2.28
2023-04-19T13:06:06.151Z,1.90
2023-04-19T13:08:43.233Z,2.13
2023-04-19T13:11:11.096Z,1.70
2023-04-19T13:13:37.675Z,1.90
2023-04-19T13:16:06.052Z,1.98
2023-04-19T13:18:32.696Z,2.17
2023-04-19T13:20:59.334Z,1.85
2023-04-19T13:23:26.377Z,1.73
2023-04-19T13:25:53.119Z,1.80
2023-04-19T13:28:19.607Z,2.33
2023-04-19T13:30:46.301Z,1.98
2023-04-19T13:33:12.930Z,2.75
2023-04-19T13:35:39.462Z,1.70
2023-04-19T13:38:06.019Z,2.22
2023-04-19T13:40:32.569Z,2.47
2023-04-19T13:42:59.417Z,2.50
2023-04-19T13:45:26.634Z,1.75
2023-04-19T13:47:53.288Z,2.70
2023-04-19T13:50:19.839Z,2.30
2023-04-19T13:52:46.525Z,2.45
2023-04-19T13:55:13.269Z,2.15
2023-04-19T13:57:40.037Z,2.00
2023-04-19T14:00:07.480Z,1.88
2023-04-19T14:02:34.823Z,2.20
2023-04-19T14:05:01.540Z,1.90
2023-04-19T14:07:28.411Z,1.90
2023-04-19T14:09:55.028Z,1.20
2023-04-19T14:12:21.593Z,1.70
2023-04-19T14:14:48.142Z,1.75
2023-04-19T14:17:14.673Z,1.77
2023-04-19T14:19:41.453Z,1.73
2023-04-19T14:22:08.087Z,2.15
2023-04-19T14:24:34.723Z,2.10
2023-04-19T14:29:31.143Z,1.70
2023-04-19T14:32:01.367Z,2.03
2023-04-19T14:34:34.327Z,1.70
2023-04-19T14:37:00.819Z,1.98
2023-04-19T14:39:27.402Z,1.52
2023-04-19T14:41:53.944Z,1.70
2023-04-19T14:44:20.717Z,1.98
2023-04-19T14:46:47.183Z,1.75
2023-04-19T14:49:13.772Z,1.90
2023-04-19T14:51:40.350Z,1.80
2023-04-19T14:54:06.899Z,1.83
2023-04-19T14:56:33.425Z,2.35
2023-04-19T14:59:00.376Z,2.20
2023-04-19T15:01:27.068Z,1.95
2023-04-19T15:03:53.894Z,1.75
2023-04-19T15:06:20.581Z,1.67
2023-04-19T15:08:47.160Z,1.77
2023-04-19T15:11:13.745Z,1.67
2023-04-19T15:13:40.742Z,1.90
2023-04-19T15:16:09.064Z,1.70
2023-04-19T15:18:36.068Z,1.50
2023-04-19T15:21:03.974Z,1.42
2023-04-19T15:23:30.521Z,1.73
2023-04-19T15:25:57.012Z,1.65
2023-04-19T15:28:24.326Z,1.25
2023-04-19T15:30:58.590Z,1.55
2023-04-19T15:33:25.867Z,1.30
2023-04-19T15:35:53.272Z,1.83
2023-04-19T15:38:23.185Z,1.38
2023-04-19T15:40:50.052Z,1.63
2023-04-19T15:43:16.732Z,1.10
2023-04-19T15:45:43.321Z,1.65
2023-04-19T15:48:10.735Z,1.52
2023-04-19T15:50:37.681Z,1.27
2023-04-19T15:53:05.385Z,1.48
2023-04-19T15:55:33.767Z,1.08
2023-04-19T15:58:00.852Z,1.30
2023-04-19T16:00:27.554Z,1.13
2023-04-19T16:02:54.205Z,1.35
2023-04-19T16:05:21.100Z,1.33
2023-04-19T16:07:47.713Z,1.20
2023-04-19T16:10:14.514Z,1.30
2023-04-19T16:12:42.370Z,1.27
2023-04-19T16:15:09.460Z,1.40
2023-04-19T16:17:36.040Z,1.42
2023-04-19T16:20:03.140Z,1.50
2023-04-19T16:22:29.700Z,1.13
2023-04-19T16:24:56.249Z,1.60
2023-04-19T16:27:22.877Z,0.95
2023-04-19T16:29:49.608Z,1.08
2023-04-19T16:32:16.261Z,1.35
2023-04-19T16:34:42.877Z,1.42
2023-04-19T16:37:09.401Z,1.23
2023-04-19T16:39:36.454Z,1.40
2023-04-19T16:42:03.055Z,2.08
2023-04-19T16:44:29.616Z,1.38
2023-04-19T16:46:56.098Z,1.25
2023-04-19T16:49:22.708Z,1.20
2023-04-19T16:51:49.212Z,1.55
2023-04-19T16:54:15.810Z,1.30
2023-04-19T16:56:42.417Z,1.35
2023-04-19T16:59:09.054Z,1.50
2023-04-19T17:01:36.075Z,1.42
2023-04-19T17:04:02.988Z,1.40
2023-04-19T17:06:29.979Z,1.17
2023-04-19T17:08:56.596Z,1.40
2023-04-19T17:11:23.718Z,1.60
2023-04-19T17:13:50.326Z,1.65
2023-04-19T17:16:17.176Z,2.65
2023-04-19T17:18:43.738Z,1.90
2023-04-19T17:21:12.953Z,1.92
2023-04-19T17:23:39.541Z,1.65
2023-04-19T17:26:06.141Z,1.40
2023-04-19T17:28:33.111Z,1.70
2023-04-19T17:30:59.721Z,1.55
2023-04-19T17:33:26.327Z,1.98
2023-04-19T17:35:52.815Z,2.17
2023-04-19T17:38:19.737Z,1.38
2023-04-19T17:40:46.294Z,2.10
2023-04-19T17:43:13.740Z,1.67
2023-04-19T17:45:40.411Z,1.65
2023-04-19T17:48:07.012Z,1.65
2023-04-19T17:50:33.956Z,1.67
2023-04-19T17:53:00.690Z,2.40
2023-04-19T17:55:27.245Z,1.90
2023-04-19T17:57:53.961Z,1.95
2023-04-19T18:00:20.705Z,2.08
2023-04-19T18:02:50.101Z,2.28
2023-04-19T18:05:17.666Z,1.65
2023-04-19T18:07:44.394Z,1.80
2023-04-19T18:10:11.106Z,2.22
2023-04-19T18:12:37.788Z,2.00
2023-04-19T18:15:06.102Z,2.17
2023-04-19T18:17:33.249Z,1.95
2023-04-19T18:19:59.768Z,2.35
2023-04-19T18:22:26.643Z,2.30
2023-04-19T18:24:53.413Z,2.00
2023-04-19T18:27:20.148Z,2.03
2023-04-19T18:29:50.272Z,2.13
2023-04-19T18:32:18.060Z,2.00
2023-04-19T18:34:44.674Z,2.35
2023-04-19T18:37:16.297Z,2.35
2023-04-19T18:39:43.643Z,2.30
2023-04-19T18:42:10.243Z,2.38
2023-04-19T18:44:53.186Z,2.08
2023-04-19T18:47:27.760Z,1.88
2023-04-19T18:52:23.861Z,2.08
2023-04-19T18:54:50.516Z,2.33
2023-04-19T18:59:46.505Z,1.95
2023-04-19T19:02:13.043Z,2.15
2023-04-19T19:04:52.249Z,2.45
2023-04-19T19:07:35.656Z,2.13
2023-04-19T19:10:16.789Z,1.90
2023-04-19T19:12:45.705Z,2.42
2023-04-19T19:15:13.062Z,2.33
2023-04-19T19:17:39.710Z,2.20
2023-04-19T19:20:07.101Z,2.10
2023-04-19T19:22:34.877Z,1.77
2023-04-19T19:25:01.734Z,2.08
2023-04-19T19:27:28.541Z,2.47
2023-04-19T19:29:55.155Z,2.17
2023-04-19T19:32:21.952Z,2.30
2023-04-19T19:37:19.220Z,1.98
2023-04-19T19:39:46.659Z,1.95
2023-04-19T19:42:16.375Z,2.17
2023-04-19T19:44:43.240Z,2.25
2023-04-19T19:47:10.926Z,1.80
2023-04-19T19:52:07.464Z,2.65
2023-04-19T19:54:34.122Z,1.88
2023-04-19T19:57:48.429Z,1.77
2023-04-19T19:59:54.409Z,1.85
2023-04-19T20:02:22.203Z,2.33
2023-04-19T20:04:49.450Z,2.42
2023-04-19T20:09:45.865Z,2.50
2023-04-19T20:12:13.587Z,2.15
2023-04-19T20:14:40.529Z,2.10
2023-04-19T20:17:07.456Z,2.22
2023-04-19T20:19:34.034Z,2.20
2023-04-19T20:22:00.812Z,2.28
2023-04-19T20:24:27.453Z,2.22
2023-04-19T20:26:54.042Z,2.10
2023-04-19T20:29:20.712Z,2.42
2023-04-19T20:31:47.437Z,1.98
2023-04-19T20:34:13.972Z,2.33
2023-04-19T20:36:40.617Z,2.00
2023-04-19T20:39:12.951Z,2.00
2023-04-19T20:41:39.676Z,2.10
2023-04-19T20:44:06.316Z,2.35
2023-04-19T20:46:35.911Z,2.22
2023-04-19T20:49:03.390Z,2.40
2023-04-19T20:51:29.922Z,1.90
2023-04-19T20:53:56.497Z,2.22
2023-04-19T20:56:23.149Z,2.40
2023-04-19T20:58:50.154Z,1.98
2023-04-19T21:01:17.619Z,2.63
2023-04-19T21:03:45.270Z,2.33
2023-04-19T21:06:12.662Z,2.35
2023-04-19T21:08:39.261Z,2.60
2023-04-19T21:11:05.867Z,2.35
2023-04-19T21:13:33.181Z,2.20
2023-04-19T21:15:59.986Z,1.65
2023-04-19T21:18:29.562Z,2.10
2023-04-19T21:20:56.888Z,2.20
2023-04-19T21:23:23.513Z,2.15
2023-04-19T21:25:50.678Z,2.00
2023-04-19T21:28:17.307Z,2.20
2023-04-19T21:30:43.876Z,2.08
2023-04-19T21:33:10.763Z,2.10
2023-04-19T21:35:37.280Z,2.00
2023-04-19T21:38:03.974Z,2.20
2023-04-19T21:40:30.586Z,2.10
2023-04-19T21:42:57.240Z,2.10
2023-04-19T21:45:23.850Z,1.88
2023-04-19T21:47:51.150Z,2.38
2023-04-19T21:50:17.832Z,1.92
2023-04-19T21:52:44.398Z,2.53
2023-04-19T21:55:10.989Z,2.10
2023-04-19T21:57:38.313Z,2.17
2023-04-19T22:00:06.803Z,1.98
2023-04-19T22:02:33.640Z,2.45
2023-04-19T22:05:00.454Z,2.10
2023-04-19T22:07:30.525Z,1.98
2023-04-19T22:10:02.984Z,2.03
2023-04-19T22:12:29.624Z,2.20
2023-04-19T22:14:56.576Z,1.80
2023-04-19T22:17:23.360Z,1.98
2023-04-19T22:19:51.384Z,1.95
2023-04-19T22:22:17.905Z,2.13
2023-04-19T22:24:56.193Z,2.15
2023-04-19T22:27:24.475Z,2.40
2023-04-19T22:29:51.102Z,2.17
2023-04-19T22:32:17.653Z,2.00
2023-04-19T22:34:44.217Z,2.53
2023-04-19T22:37:10.794Z,2.10
2023-04-19T22:39:37.283Z,2.20
2023-04-19T22:42:03.978Z,2.17
2023-04-19T22:44:30.537Z,2.10
2023-04-19T22:46:59.234Z,2.03
2023-04-19T22:49:25.839Z,1.92
2023-04-19T22:51:54.333Z,2.10
2023-04-19T22:54:20.961Z,2.33
2023-04-19T22:56:47.481Z,2.45
2023-04-19T22:59:14.132Z,2.47
2023-04-19T23:01:40.915Z,2.35
2023-04-19T23:04:07.434Z,2.38
2023-04-19T23:06:34.431Z,2.10
2023-04-19T23:09:01.312Z,2.55
2023-04-19T23:11:29.805Z,2.10
2023-04-19T23:13:56.422Z,2.10
2023-04-19T23:16:24.510Z,2.38
2023-04-19T23:18:51.912Z,2.38
2023-04-19T23:21:18.453Z,1.98
2023-04-19T23:23:44.945Z,2.30
2023-04-19T23:26:11.614Z,2.58
2023-04-19T23:28:38.096Z,2.45
2023-04-19T23:31:04.927Z,2.08
2023-04-19T23:33:31.525Z,2.40
2023-04-19T23:35:58.258Z,2.25
2023-04-19T23:38:24.806Z,3.00
2023-04-19T23:40:51.396Z,1.80
2023-04-19T23:43:17.881Z,2.10
2023-04-19T23:45:44.531Z,2.40
2023-04-19T23:48:11.009Z,2.08
2023-04-19T23:50:37.638Z,2.20
2023-04-19T23:53:05.355Z,2.20
2023-04-19T23:55:31.947Z,2.60
2023-04-19T23:57:58.489Z,2.03
